Bremen, North Dakota
Current Conditions -  °F | °C
As of 1:55 AM on Sunday 26 Oct 2014 (Local Time) from K46D Reporting Station
Clear Clear  
Wind Chill: 30°   Ceiling: Unl
Heat Index: 37°   Visibility: 10mi
Dew Point: 30°   Wind: 12mph
Humidity: 75%   Direction: 130°SE
Pressure: 29.93"   Gusts: NA
Location:  47.75°N, 99.39°W
Report Text: K46D 260655Z AUTO 13010KT 10SM CLR 03/M01 A2993 RMK AO2
Loading
Personal Weather Stations






























Interactive Weather Map
Tropical Storm Tracking
New forecast layout! Learn more

10-Day Weather Forecast

Advertisements
Track Severe Weather on mobile